createdAt,value
2023-01-18T00:00:18.933Z,32.35
2023-01-18T00:02:47.299Z,32.22
2023-01-18T00:05:15.621Z,31.98
2023-01-18T00:07:43.531Z,32.02
2023-01-18T00:10:11.851Z,32.39
2023-01-18T00:12:41.125Z,32.09
2023-01-18T00:15:10.705Z,32.45
2023-01-18T00:17:47.747Z,32.44
2023-01-18T00:20:15.997Z,32.20
2023-01-18T00:22:43.940Z,32.25
2023-01-18T00:25:12.107Z,32.25
2023-01-18T00:27:41.447Z,32.21
2023-01-18T00:30:14.563Z,32.08
2023-01-18T00:32:42.446Z,32.13
2023-01-18T00:35:10.961Z,32.35
2023-01-18T00:37:38.929Z,32.01
2023-01-18T00:40:07.951Z,31.93
2023-01-18T00:42:53.535Z,31.79
2023-01-18T00:45:22.825Z,32.24
2023-01-18T00:47:50.671Z,31.97
2023-01-18T00:50:19.611Z,32.02
2023-01-18T00:52:47.531Z,31.91
2023-01-18T00:55:16.098Z,32.09
2023-01-18T00:57:44.024Z,31.80
2023-01-18T01:00:15.289Z,32.02
2023-01-18T01:02:44.671Z,32.27
2023-01-18T01:05:34.881Z,32.03
2023-01-18T01:08:02.756Z,32.08
2023-01-18T01:10:30.638Z,31.92
2023-01-18T01:13:16.398Z,32.15
2023-01-18T01:16:01.680Z,31.99
2023-01-18T01:18:48.682Z,32.28
2023-01-18T01:21:34.473Z,32.17
2023-01-18T01:24:19.547Z,32.28
2023-01-18T01:26:47.415Z,32.21
2023-01-18T01:29:15.931Z,32.16
2023-01-18T01:31:43.816Z,31.86
2023-01-18T01:34:13.152Z,32.00
2023-01-18T01:36:41.009Z,31.63
2023-01-18T01:39:11.012Z,31.80
2023-01-18T01:41:39.003Z,31.73
2023-01-18T01:44:40.136Z,32.22
2023-01-18T01:47:09.185Z,31.94
2023-01-18T01:49:40.175Z,31.93
2023-01-18T01:52:09.135Z,32.17
2023-01-18T01:54:38.767Z,31.86
2023-01-18T01:57:08.252Z,31.82
2023-01-18T01:59:36.182Z,31.93
2023-01-18T02:02:04.572Z,31.93
2023-01-18T02:04:32.899Z,31.70
2023-01-18T02:07:02.140Z,31.98
2023-01-18T02:09:30.054Z,31.70
2023-01-18T02:11:57.945Z,31.89
2023-01-18T02:14:27.640Z,31.52
2023-01-18T02:17:02.267Z,31.75
2023-01-18T02:19:58.457Z,31.47
2023-01-18T02:22:37.815Z,31.77
2023-01-18T02:25:25.221Z,31.64
2023-01-18T02:27:55.445Z,31.61
2023-01-18T02:30:26.811Z,31.80
2023-01-18T02:33:03.099Z,31.60
2023-01-18T02:35:37.471Z,31.70
2023-01-18T02:38:08.224Z,31.51
2023-01-18T02:40:41.031Z,31.87
2023-01-18T02:43:27.470Z,31.74
2023-01-18T02:46:14.300Z,31.99
2023-01-18T02:48:43.036Z,31.47
2023-01-18T02:51:11.187Z,31.70
2023-01-18T02:53:40.354Z,31.50
2023-01-18T02:56:09.780Z,31.48
2023-01-18T02:58:40.102Z,31.65
2023-01-18T03:01:11.821Z,31.81
2023-01-18T03:03:40.048Z,31.70
2023-01-18T03:06:08.043Z,31.74
2023-01-18T03:08:37.339Z,31.55
2023-01-18T03:11:07.073Z,31.59
2023-01-18T03:13:43.309Z,31.83
2023-01-18T03:16:14.264Z,31.38
2023-01-18T03:19:00.290Z,31.84
2023-01-18T03:21:38.198Z,31.83
2023-01-18T03:24:08.080Z,31.35
2023-01-18T03:26:39.228Z,31.25
2023-01-18T03:29:24.641Z,31.28
2023-01-18T03:32:13.423Z,31.36
2023-01-18T03:34:44.244Z,31.58
2023-01-18T03:37:13.277Z,31.48
2023-01-18T03:39:42.235Z,31.47
2023-01-18T03:42:12.317Z,31.13
2023-01-18T03:44:42.794Z,31.39
2023-01-18T03:47:12.054Z,31.76
2023-01-18T03:49:39.948Z,31.71
2023-01-18T03:52:11.164Z,31.67
2023-01-18T03:54:41.564Z,31.31
2023-01-18T03:57:11.280Z,31.57
2023-01-18T03:59:39.707Z,31.53
2023-01-18T04:02:08.033Z,31.55
2023-01-18T04:04:37.628Z,31.21
2023-01-18T04:07:05.612Z,31.35
2023-01-18T04:09:33.535Z,31.78
2023-01-18T04:12:01.420Z,31.39
2023-01-18T04:14:29.560Z,31.63
2023-01-18T04:16:57.481Z,31.30
2023-01-18T04:19:25.674Z,31.64
2023-01-18T04:21:54.994Z,31.42
2023-01-18T04:24:23.200Z,31.06
2023-01-18T04:26:51.087Z,30.92
2023-01-18T04:29:18.991Z,31.44
2023-01-18T04:31:47.227Z,31.24
2023-01-18T04:34:15.417Z,31.57
2023-01-18T04:36:43.315Z,31.17
2023-01-18T04:39:13.554Z,31.27
2023-01-18T04:41:41.406Z,31.46
2023-01-18T04:44:09.780Z,31.35
2023-01-18T04:46:38.348Z,31.08
2023-01-18T04:49:06.278Z,31.26
2023-01-18T04:51:34.258Z,31.17
2023-01-18T04:54:02.396Z,31.51
2023-01-18T04:56:31.644Z,31.29
2023-01-18T04:58:59.560Z,31.32
2023-01-18T05:01:29.602Z,30.93
2023-01-18T05:03:57.819Z,31.15
2023-01-18T05:06:25.719Z,31.28
2023-01-18T05:08:53.725Z,31.31
2023-01-18T05:11:23.158Z,31.13
2023-01-18T05:13:52.736Z,30.93
2023-01-18T05:16:22.088Z,31.15
2023-01-18T05:18:50.013Z,31.22
2023-01-18T05:21:17.873Z,31.38
2023-01-18T05:23:46.075Z,30.97
2023-01-18T05:26:16.426Z,30.95
2023-01-18T05:28:44.711Z,31.25
2023-01-18T05:31:14.163Z,31.01
2023-01-18T05:33:42.343Z,31.36
2023-01-18T05:36:10.306Z,31.20
2023-01-18T05:38:38.191Z,31.36
2023-01-18T05:41:06.335Z,30.91
2023-01-18T05:43:35.678Z,30.93
2023-01-18T05:46:04.694Z,31.22
2023-01-18T05:48:34.061Z,30.78
2023-01-18T05:51:01.935Z,30.82
2023-01-18T05:53:29.852Z,30.83
2023-01-18T05:55:58.451Z,31.10
2023-01-18T05:58:26.572Z,30.99
2023-01-18T06:00:54.556Z,30.93
2023-01-18T06:03:22.480Z,30.95
2023-01-18T06:05:52.381Z,30.94
2023-01-18T06:08:20.328Z,31.34
2023-01-18T06:10:54.002Z,31.15
2023-01-18T06:13:22.078Z,31.00
2023-01-18T06:15:50.435Z,31.06
2023-01-18T06:18:18.337Z,30.78
2023-01-18T06:20:46.285Z,30.72
2023-01-18T06:23:15.555Z,31.17
2023-01-18T06:25:43.674Z,30.81
2023-01-18T06:28:11.579Z,31.06
2023-01-18T06:30:39.661Z,31.12
2023-01-18T06:33:08.511Z,31.06
2023-01-18T06:35:36.502Z,30.95
2023-01-18T06:38:04.690Z,30.77
2023-01-18T06:40:33.997Z,30.81
2023-01-18T06:43:02.236Z,30.71
2023-01-18T06:45:30.523Z,31.04
2023-01-18T06:47:58.426Z,30.75
2023-01-18T06:50:26.916Z,30.67
2023-01-18T06:52:55.761Z,30.58
2023-01-18T06:55:24.209Z,30.94
2023-01-18T06:57:54.963Z,30.64
2023-01-18T07:00:24.005Z,30.97
2023-01-18T07:02:52.557Z,31.06
2023-01-18T07:05:20.753Z,30.57
2023-01-18T07:07:48.687Z,30.81
2023-01-18T07:10:16.983Z,30.87
2023-01-18T07:12:48.577Z,31.04
2023-01-18T07:15:22.790Z,31.07
2023-01-18T07:17:51.307Z,30.73
2023-01-18T07:20:19.901Z,30.92
2023-01-18T07:22:51.655Z,30.60
2023-01-18T07:25:20.742Z,30.57
2023-01-18T07:27:49.909Z,30.88
2023-01-18T07:30:19.819Z,30.90
2023-01-18T07:32:49.334Z,30.60
2023-01-18T07:35:18.519Z,30.92
2023-01-18T07:37:50.193Z,30.83
2023-01-18T07:40:18.877Z,30.83
2023-01-18T07:42:46.931Z,30.48
2023-01-18T07:45:15.271Z,30.65
2023-01-18T07:47:46.183Z,30.39
2023-01-18T07:50:16.023Z,30.52
2023-01-18T07:52:43.877Z,30.55
2023-01-18T07:55:12.025Z,30.34
2023-01-18T07:57:39.899Z,30.68
2023-01-18T08:00:12.208Z,30.53
2023-01-18T08:02:40.451Z,30.65
2023-01-18T08:05:11.529Z,30.36
2023-01-18T08:07:39.427Z,31.00
2023-01-18T08:10:07.660Z,30.76
2023-01-18T08:12:35.591Z,30.59
2023-01-18T08:15:04.548Z,30.42
2023-01-18T08:17:32.455Z,30.68
2023-01-18T08:20:00.351Z,30.75
2023-01-18T08:22:29.649Z,30.56
2023-01-18T08:24:57.788Z,30.33
2023-01-18T08:27:27.270Z,30.50
2023-01-18T08:29:55.297Z,30.71
2023-01-18T08:32:23.189Z,30.58
2023-01-18T08:34:51.501Z,30.51
2023-01-18T08:37:19.470Z,30.32
2023-01-18T08:39:48.719Z,30.69
2023-01-18T08:42:16.596Z,30.81
2023-01-18T08:44:44.794Z,30.35
2023-01-18T08:47:12.844Z,30.63
2023-01-18T08:49:40.698Z,30.36
2023-01-18T08:52:10.948Z,30.21
2023-01-18T08:54:38.826Z,30.38
2023-01-18T08:57:09.209Z,30.44
2023-01-18T08:59:37.285Z,30.26
2023-01-18T09:02:05.253Z,30.26
2023-01-18T09:04:34.731Z,30.49
2023-01-18T09:07:02.656Z,30.69
2023-01-18T09:09:30.556Z,30.29
2023-01-18T09:11:58.660Z,30.59
2023-01-18T09:14:28.229Z,30.18
2023-01-18T09:16:56.131Z,30.45
2023-01-18T09:19:24.020Z,30.34
2023-01-18T09:21:52.394Z,30.17
2023-01-18T09:24:20.630Z,30.42
2023-01-18T09:26:51.725Z,30.22
2023-01-18T09:29:19.615Z,30.73
2023-01-18T09:31:49.361Z,30.15
2023-01-18T09:34:19.902Z,30.32
2023-01-18T09:36:50.361Z,30.58
2023-01-18T09:39:18.323Z,30.40
2023-01-18T09:41:48.884Z,30.55
2023-01-18T09:44:19.186Z,30.37
2023-01-18T09:46:50.811Z,30.32
2023-01-18T09:49:21.238Z,30.43
2023-01-18T09:51:55.061Z,30.15
2023-01-18T09:54:30.462Z,30.12
2023-01-18T09:57:01.483Z,30.30
2023-01-18T09:59:33.270Z,30.35
2023-01-18T10:02:03.863Z,30.57
2023-01-18T10:04:33.645Z,30.37
2023-01-18T10:07:01.924Z,30.27
2023-01-18T10:09:30.981Z,30.52
2023-01-18T10:12:00.677Z,30.31
2023-01-18T10:14:45.460Z,30.44
2023-01-18T10:17:18.341Z,30.36
2023-01-18T10:19:46.254Z,30.37
2023-01-18T10:22:19.717Z,30.49
2023-01-18T10:24:51.488Z,30.13
2023-01-18T10:27:31.349Z,30.37
2023-01-18T10:30:04.916Z,30.48
2023-01-18T10:32:36.339Z,30.38
2023-01-18T10:35:05.990Z,30.44
2023-01-18T10:37:38.779Z,30.23
2023-01-18T10:40:09.294Z,30.57
2023-01-18T10:42:40.653Z,30.16
2023-01-18T10:45:19.283Z,30.50
2023-01-18T10:47:48.955Z,30.28
2023-01-18T10:50:17.876Z,30.10
2023-01-18T10:52:46.112Z,30.10
2023-01-18T10:55:17.871Z,30.55
2023-01-18T10:57:48.496Z,30.27
2023-01-18T11:00:21.470Z,29.98
2023-01-18T11:02:51.547Z,30.24
2023-01-18T11:05:25.882Z,29.93
2023-01-18T11:08:11.667Z,30.03
2023-01-18T11:10:39.945Z,30.21
2023-01-18T11:13:27.021Z,30.15
2023-01-18T11:16:12.716Z,30.37
2023-01-18T11:19:00.495Z,30.30
2023-01-18T11:21:33.151Z,30.08
2023-01-18T11:24:07.221Z,30.12
2023-01-18T11:26:35.376Z,30.10
2023-01-18T11:29:05.091Z,30.31
2023-01-18T11:31:45.820Z,30.39
2023-01-18T11:34:22.841Z,30.50
2023-01-18T11:36:50.745Z,30.48
2023-01-18T11:39:20.120Z,30.34
2023-01-18T11:41:48.766Z,29.97
2023-01-18T11:44:19.844Z,30.12
2023-01-18T11:46:49.653Z,30.08
2023-01-18T11:49:30.611Z,30.33
2023-01-18T11:52:01.788Z,30.49
2023-01-18T11:54:33.307Z,30.36
2023-01-18T11:57:02.950Z,30.07
2023-01-18T11:59:31.668Z,30.45
2023-01-18T12:02:22.610Z,30.44
2023-01-18T12:04:58.956Z,30.39
2023-01-18T12:07:32.288Z,30.50
2023-01-18T12:10:01.557Z,30.12
2023-01-18T12:12:39.744Z,29.97
2023-01-18T12:15:20.768Z,30.17
2023-01-18T12:18:11.574Z,30.15
2023-01-18T12:20:43.974Z,30.14
2023-01-18T12:23:34.128Z,30.30
2023-01-18T12:26:23.865Z,30.01
2023-01-18T12:29:00.310Z,30.25
2023-01-18T12:31:35.926Z,30.32
2023-01-18T12:34:06.711Z,30.31
2023-01-18T12:36:51.782Z,30.62
2023-01-18T12:39:27.826Z,30.14
2023-01-18T12:41:58.534Z,30.02
2023-01-18T12:44:52.113Z,30.29
2023-01-18T12:47:32.788Z,30.04
2023-01-18T12:50:00.667Z,30.05
2023-01-18T12:52:29.921Z,30.49
2023-01-18T12:54:59.353Z,30.34
2023-01-18T12:57:27.249Z,30.42
2023-01-18T12:59:56.098Z,30.18
2023-01-18T13:02:32.052Z,29.90
2023-01-18T13:05:03.558Z,30.31
2023-01-18T13:07:33.979Z,30.35
2023-01-18T13:10:01.837Z,30.29
2023-01-18T13:12:29.737Z,30.08
2023-01-18T13:15:01.846Z,30.17
2023-01-18T13:17:31.686Z,30.42
2023-01-18T13:20:04.991Z,30.36
2023-01-18T13:22:36.972Z,30.50
2023-01-18T13:25:25.036Z,30.45
2023-01-18T13:28:00.358Z,30.37
2023-01-18T13:30:28.821Z,30.07
2023-01-18T13:32:56.990Z,29.88
2023-01-18T13:35:31.652Z,30.31
2023-01-18T13:38:02.388Z,30.41
2023-01-18T13:40:38.087Z,29.83
2023-01-18T13:43:06.655Z,30.18
2023-01-18T13:45:36.245Z,30.18
2023-01-18T13:48:05.310Z,30.31
2023-01-18T13:50:48.865Z,30.22
2023-01-18T13:53:25.411Z,30.36
2023-01-18T13:56:29.144Z,30.14
2023-01-18T13:59:03.985Z,30.12
2023-01-18T14:01:35.009Z,30.13
2023-01-18T14:04:08.763Z,30.37
2023-01-18T14:06:37.670Z,30.24
2023-01-18T14:09:08.472Z,30.19
2023-01-18T14:11:37.744Z,30.07
2023-01-18T14:14:08.528Z,30.57
2023-01-18T14:16:54.523Z,30.13
2023-01-18T14:19:22.947Z,30.27
2023-01-18T14:22:05.402Z,30.33
2023-01-18T14:24:51.157Z,30.45
2023-01-18T14:27:21.269Z,30.41
2023-01-18T14:29:50.025Z,30.37
2023-01-18T14:32:21.693Z,30.30
2023-01-18T14:34:57.576Z,30.56
2023-01-18T14:37:28.578Z,30.22
2023-01-18T14:40:15.036Z,30.16
2023-01-18T14:42:46.913Z,30.24
2023-01-18T14:45:27.413Z,30.40
2023-01-18T14:47:55.994Z,30.26
2023-01-18T14:50:24.348Z,30.31
2023-01-18T14:52:53.044Z,30.14
2023-01-18T14:55:28.460Z,30.08
2023-01-18T14:58:02.717Z,30.31
2023-01-18T15:00:30.886Z,30.21
2023-01-18T15:03:01.281Z,30.13
2023-01-18T15:05:30.775Z,30.29
2023-01-18T15:07:58.652Z,30.16
2023-01-18T15:10:28.382Z,30.49
2023-01-18T15:12:58.506Z,30.10
2023-01-18T15:15:30.447Z,30.43
2023-01-18T15:18:01.992Z,30.61
2023-01-18T15:20:29.950Z,30.39
2023-01-18T15:22:58.074Z,30.24
2023-01-18T15:25:29.072Z,30.15
2023-01-18T15:27:59.696Z,30.14
2023-01-18T15:30:27.621Z,30.03
2023-01-18T15:32:56.456Z,30.13
2023-01-18T15:35:25.397Z,30.32
2023-01-18T15:37:53.297Z,30.19
2023-01-18T15:40:25.976Z,30.17
2023-01-18T15:42:59.105Z,30.32
2023-01-18T15:45:29.168Z,30.07
2023-01-18T15:47:58.522Z,30.01
2023-01-18T15:50:28.923Z,30.33
2023-01-18T15:53:06.431Z,30.37
2023-01-18T15:55:35.209Z,30.51
2023-01-18T15:58:05.612Z,30.24
2023-01-18T16:00:38.042Z,30.28
2023-01-18T16:03:05.984Z,30.05
2023-01-18T16:05:34.214Z,30.19
2023-01-18T16:08:16.869Z,30.46
2023-01-18T16:10:52.340Z,30.14
2023-01-18T16:13:40.301Z,30.05
2023-01-18T16:16:22.436Z,30.42
2023-01-18T16:18:52.910Z,30.34
2023-01-18T16:21:40.229Z,30.33
2023-01-18T16:24:18.571Z,30.45
2023-01-18T16:26:46.588Z,30.26
2023-01-18T16:29:15.849Z,30.07
2023-01-18T16:31:44.299Z,30.34
2023-01-18T16:34:23.265Z,30.39
2023-01-18T16:36:51.472Z,30.02
2023-01-18T16:39:19.466Z,29.90
2023-01-18T16:41:51.546Z,30.36
2023-01-18T16:44:21.181Z,30.04
2023-01-18T16:46:49.213Z,30.14
2023-01-18T16:49:17.182Z,30.39
2023-01-18T16:51:45.063Z,29.92
2023-01-18T16:54:13.184Z,30.32
2023-01-18T16:56:45.771Z,30.22
2023-01-18T16:59:16.775Z,30.19
2023-01-18T17:01:46.180Z,30.19
2023-01-18T17:04:14.537Z,30.41
2023-01-18T17:06:42.607Z,30.43
2023-01-18T17:09:19.717Z,30.20
2023-01-18T17:11:47.643Z,30.60
2023-01-18T17:14:15.820Z,30.69
2023-01-18T17:16:44.950Z,30.43
2023-01-18T17:19:14.877Z,30.49
2023-01-18T17:21:42.829Z,30.79
2023-01-18T17:24:11.235Z,30.57
2023-01-18T17:26:39.258Z,30.72
2023-01-18T17:29:07.473Z,30.86
2023-01-18T17:31:41.650Z,30.58
2023-01-18T17:34:17.443Z,30.88
2023-01-18T17:36:45.637Z,30.67
2023-01-18T17:39:14.705Z,30.57
2023-01-18T17:41:42.805Z,30.74
2023-01-18T17:44:11.273Z,30.97
2023-01-18T17:46:39.183Z,30.87
2023-01-18T17:49:07.074Z,30.87
2023-01-18T17:51:38.306Z,31.03
2023-01-18T17:54:13.145Z,31.02
2023-01-18T17:56:48.163Z,30.90
2023-01-18T17:59:16.076Z,31.07
2023-01-18T18:01:44.088Z,30.80
2023-01-18T18:04:12.369Z,31.01
2023-01-18T18:06:53.390Z,31.03
2023-01-18T18:09:22.150Z,31.09
2023-01-18T18:11:50.074Z,31.07
2023-01-18T18:14:18.589Z,31.06
2023-01-18T18:16:46.510Z,31.12
2023-01-18T18:19:15.048Z,31.14
2023-01-18T18:21:45.095Z,31.41
2023-01-18T18:24:13.248Z,31.18
2023-01-18T18:26:41.087Z,31.47
2023-01-18T18:29:09.405Z,31.32
2023-01-18T18:31:38.867Z,31.17
2023-01-18T18:34:07.939Z,31.21
2023-01-18T18:36:35.846Z,31.42
2023-01-18T18:39:05.385Z,31.19
2023-01-18T18:41:33.263Z,30.99
2023-01-18T18:44:01.272Z,31.28
2023-01-18T18:46:29.294Z,31.25
2023-01-18T18:48:57.524Z,30.99
2023-01-18T18:51:25.444Z,31.10
2023-01-18T18:53:53.704Z,31.12
2023-01-18T18:56:22.935Z,31.00
2023-01-18T18:58:50.828Z,31.05
2023-01-18T19:01:20.730Z,31.20
2023-01-18T19:03:49.233Z,31.02
2023-01-18T19:06:19.797Z,30.83
2023-01-18T19:08:47.737Z,31.07
2023-01-18T19:11:15.835Z,31.35
2023-01-18T19:13:46.694Z,31.11
2023-01-18T19:16:15.404Z,31.30
2023-01-18T19:18:43.428Z,30.92
2023-01-18T19:21:11.427Z,31.29
2023-01-18T19:23:39.776Z,31.05
2023-01-18T19:26:07.740Z,31.13
2023-01-18T19:28:35.779Z,31.33
2023-01-18T19:31:05.839Z,31.28
2023-01-18T19:33:33.795Z,31.21
2023-01-18T19:36:07.536Z,31.30
2023-01-18T19:38:38.782Z,31.33
2023-01-18T19:41:11.521Z,31.22
2023-01-18T19:43:39.661Z,31.22
2023-01-18T19:46:09.329Z,31.26
2023-01-18T19:48:38.046Z,31.02
2023-01-18T19:51:16.471Z,31.44
2023-01-18T19:53:48.927Z,30.90
2023-01-18T19:56:16.843Z,31.21
2023-01-18T19:58:44.712Z,31.38
2023-01-18T20:01:26.574Z,31.03
2023-01-18T20:03:58.713Z,31.15
2023-01-18T20:06:26.627Z,31.05
2023-01-18T20:08:54.521Z,31.19
2023-01-18T20:11:22.382Z,31.05
2023-01-18T20:13:51.103Z,31.15
2023-01-18T20:16:21.253Z,31.12
2023-01-18T20:18:49.522Z,31.14
2023-01-18T20:21:19.120Z,30.88
2023-01-18T20:23:47.480Z,31.00
2023-01-18T20:26:19.988Z,31.05
2023-01-18T20:28:53.681Z,31.18
2023-01-18T20:31:22.985Z,31.07
2023-01-18T20:33:51.171Z,30.88
2023-01-18T20:36:19.148Z,31.24
2023-01-18T20:38:47.041Z,31.03
2023-01-18T20:41:15.013Z,30.96
2023-01-18T20:43:43.451Z,30.65
2023-01-18T20:46:11.714Z,31.13
2023-01-18T20:48:41.076Z,30.76
2023-01-18T20:51:09.104Z,31.15
2023-01-18T20:53:37.869Z,30.89
2023-01-18T20:56:08.345Z,31.11
2023-01-18T20:58:39.805Z,31.03
2023-01-18T21:01:08.335Z,31.01
2023-01-18T21:03:36.305Z,30.91
2023-01-18T21:06:05.731Z,30.57
2023-01-18T21:08:33.601Z,30.89
2023-01-18T21:11:01.478Z,30.88
2023-01-18T21:13:29.693Z,30.98
2023-01-18T21:15:58.391Z,30.63
2023-01-18T21:18:26.299Z,30.89
2023-01-18T21:20:54.398Z,30.45
2023-01-18T21:23:25.871Z,31.11
2023-01-18T21:25:54.603Z,30.88
2023-01-18T21:28:22.495Z,30.93
2023-01-18T21:30:51.552Z,30.63
2023-01-18T21:33:19.501Z,30.81
2023-01-18T21:35:47.448Z,30.83
2023-01-18T21:38:15.313Z,30.64
2023-01-18T21:40:44.650Z,30.71
2023-01-18T21:43:30.964Z,30.44
2023-01-18T21:45:58.994Z,31.11
2023-01-18T21:48:28.195Z,30.59
2023-01-18T21:51:13.647Z,30.67
2023-01-18T21:54:00.125Z,30.53
2023-01-18T21:56:29.400Z,30.70
2023-01-18T21:58:58.124Z,30.85
2023-01-18T22:01:27.294Z,30.47
2023-01-18T22:04:12.936Z,30.39
2023-01-18T22:06:40.876Z,30.79
2023-01-18T22:09:08.972Z,30.63
2023-01-18T22:11:38.241Z,30.83
2023-01-18T22:14:06.472Z,30.74
2023-01-18T22:16:34.378Z,30.73
2023-01-18T22:19:03.157Z,30.70
2023-01-18T22:21:31.000Z,30.56
2023-01-18T22:23:59.468Z,30.31
2023-01-18T22:26:28.163Z,30.61
2023-01-18T22:28:57.524Z,30.59
2023-01-18T22:31:25.518Z,30.47
2023-01-18T22:33:53.469Z,30.62
2023-01-18T22:36:21.367Z,30.80
2023-01-18T22:38:49.233Z,30.52
2023-01-18T22:41:18.102Z,30.62
2023-01-18T22:43:46.304Z,30.70
2023-01-18T22:46:16.375Z,30.52
2023-01-18T22:48:44.252Z,30.59
2023-01-18T22:51:13.017Z,30.78
2023-01-18T22:53:41.128Z,30.62
2023-01-18T22:56:10.754Z,30.79
2023-01-18T22:58:38.622Z,30.60
2023-01-18T23:01:15.681Z,30.32
2023-01-18T23:03:43.945Z,30.48
2023-01-18T23:06:11.842Z,30.25
2023-01-18T23:08:44.660Z,30.63
2023-01-18T23:11:13.591Z,30.56
2023-01-18T23:13:42.066Z,30.35
2023-01-18T23:16:28.536Z,30.46
2023-01-18T23:18:57.809Z,30.28
2023-01-18T23:21:25.686Z,30.38
2023-01-18T23:23:53.873Z,30.36
2023-01-18T23:26:21.962Z,30.46
2023-01-18T23:28:49.854Z,30.19
2023-01-18T23:31:19.190Z,30.05
2023-01-18T23:33:47.377Z,29.94
2023-01-18T23:36:16.663Z,29.96
2023-01-18T23:39:01.966Z,30.43
2023-01-18T23:41:47.513Z,30.10
2023-01-18T23:44:32.547Z,30.08
2023-01-18T23:47:18.062Z,30.05
2023-01-18T23:50:03.400Z,30.34
2023-01-18T23:52:50.638Z,30.30
2023-01-18T23:55:18.689Z,30.03
2023-01-18T23:57:46.554Z,30.33
